Time;durP1;ratioP1;P1;durP2;ratioP2;P2;SDS_P1;SDS_P2;PMS_P1;PMS_P2;Temp;Humidity;BMP_temperature;BMP_pressure;BME280_temperature;BME280_humidity;BME280_pressure;Samples;Min_cycle;Max_cycle;Signal;HPM_P1;HPM_P2
2023/03/23 00:03:21;;;;;;;0.65;0.50;;;;;;;11.41;100.00;99493.88;10503455;28;20487;-83
2023/03/23 00:08:22;;;;;;;0.17;0.17;;;;;;;11.50;100.00;99500.72;10523046;28;20041;-83
2023/03/23 00:13:27;;;;;;;0.00;0.00;;;;;;;11.65;100.00;99515.34;10521835;28;20048;-83
2023/03/23 00:18:28;;;;;;;0.35;0.28;;;;;;;11.34;100.00;99536.00;10511308;28;20127;-83
2023/03/23 00:23:29;;;;;;;0.00;0.00;;;;;;;11.45;100.00;99522.22;10511305;28;20055;-83
2023/03/23 00:28:29;;;;;;;0.20;0.20;;;;;;;11.42;100.00;99511.06;10517708;28;20032;-83
2023/03/23 00:33:38;;;;;;;0.00;0.00;;;;;;;11.48;100.00;99517.06;10520584;28;20039;-85
2023/03/23 00:38:41;;;;;;;0.05;0.05;;;;;;;11.51;100.00;99536.00;10534324;28;20040;-83
2023/03/23 00:43:42;;;;;;;0.30;0.30;;;;;;;11.53;100.00;99533.41;10521917;28;20040;-84
2023/03/23 00:48:44;;;;;;;0.45;0.30;;;;;;;11.60;100.00;99553.16;10508719;28;20490;-84
2023/03/23 00:53:46;;;;;;;0.95;0.75;;;;;;;11.70;100.00;99565.22;10501359;28;20051;-85
2023/03/23 00:58:46;;;;;;;0.38;0.38;;;;;;;11.67;100.00;99560.06;10510194;28;20040;-81
2023/03/23 01:03:47;;;;;;;0.10;0.10;;;;;;;11.81;100.00;99567.78;10518699;28;20056;-86
2023/03/23 01:08:48;;;;;;;0.00;0.00;;;;;;;11.82;100.00;99566.94;10518472;28;20044;-80
2023/03/23 01:13:49;;;;;;;2.38;0.65;;;;;;;11.84;100.00;99569.50;10517050;28;20391;-80
2023/03/23 01:18:50;;;;;;;3.20;0.50;;;;;;;11.82;100.00;99558.31;10506338;28;20040;-79
2023/03/23 01:23:50;;;;;;;0.10;0.05;;;;;;;11.83;100.00;99560.91;10510202;28;20040;-79
2023/03/23 01:28:51;;;;;;;0.10;0.10;;;;;;;11.67;100.00;99557.47;10519589;28;20035;-82
2023/03/23 01:33:54;;;;;;;0.03;0.03;;;;;;;11.91;100.00;99568.66;10514770;28;20097;-80
2023/03/23 01:38:55;;;;;;;2.65;0.08;;;;;;;11.73;100.00;99575.53;10507875;28;20039;-81
2023/03/23 01:44:01;;;;;;;0.60;0.38;;;;;;;11.72;100.00;99591.00;10515080;28;20044;-82
2023/03/23 01:49:12;;;;;;;0.15;0.15;;;;;;;11.27;100.00;99493.00;10499053;28;20483;-80
2023/03/23 01:54:20;;;;;;;3.13;1.08;;;;;;;11.24;100.00;99441.44;10505692;28;20040;-80
2023/03/23 01:59:23;;;;;;;0.60;0.38;;;;;;;11.26;100.00;99372.69;10495960;28;20185;-82
2023/03/23 02:04:35;;;;;;;0.15;0.15;;;;;;;11.26;100.00;99367.53;10545967;28;20043;-81
2023/03/23 02:09:36;;;;;;;0.45;0.15;;;;;;;11.27;100.00;99348.63;10544895;28;20400;-81
2023/03/23 02:14:37;;;;;;;0.25;0.20;;;;;;;11.34;100.00;99349.47;10519631;28;20537;-81
2023/03/23 02:20:07;;;;;;;0.45;0.40;;;;;;;11.32;100.00;99367.53;10518985;28;20092;-82
2023/03/23 02:25:56;;;;;;;0.22;0.13;;;;;;;11.41;100.00;99382.97;10493293;28;20040;-79
2023/03/23 02:31:21;;;;;;;0.77;0.60;;;;;;;11.47;100.00;99350.31;10510115;28;20063;-80
2023/03/23 02:36:35;;;;;;;4.75;0.30;;;;;;;11.31;100.00;99342.59;10514068;28;20043;-83
2023/03/23 02:41:44;;;;;;;0.25;0.17;;;;;;;11.43;100.00;99345.13;10535783;28;20043;-83
2023/03/23 02:46:48;;;;;;;0.20;0.17;;;;;;;11.57;100.00;99352.00;10528876;28;20174;-83
2023/03/23 02:51:50;;;;;;;0.65;0.38;;;;;;;11.49;100.00;99367.47;10492523;28;20044;-84
2023/03/23 02:56:54;;;;;;;0.10;0.10;;;;;;;11.57;100.00;99377.78;10512537;28;20035;-86
2023/03/23 03:02:17;;;;;;;0.53;0.27;;;;;;;11.54;100.00;99393.25;10504165;28;20060;-83
2023/03/23 03:07:36;;;;;;;0.17;0.17;;;;;;;11.48;100.00;99388.13;10516391;28;20281;-85
2023/03/23 03:12:50;;;;;;;0.70;0.30;;;;;;;11.65;100.00;99391.53;10549326;28;20096;-84
2023/03/23 03:18:06;;;;;;;0.80;0.52;;;;;;;11.68;100.00;99404.41;10547942;28;20032;-83
2023/03/23 03:23:09;;;;;;;0.17;0.00;;;;;;;11.61;100.00;99420.75;10519120;28;20402;-86
2023/03/23 03:28:10;;;;;;;0.40;0.40;;;;;;;11.78;100.00;99425.03;10515322;28;20031;-82
2023/03/23 03:33:17;;;;;;;0.20;0.20;;;;;;;11.80;100.00;99436.22;10529011;28;20122;-85
2023/03/23 03:38:18;;;;;;;0.50;0.50;;;;;;;11.87;100.00;99437.91;10556417;28;20035;-83
2023/03/23 03:43:19;;;;;;;1.05;0.35;;;;;;;11.88;100.00;99430.16;10506256;28;20390;-85
2023/03/23 03:48:20;;;;;;;0.20;0.20;;;;;;;11.87;100.00;99443.06;10496318;28;20620;-85
2023/03/23 03:53:24;;;;;;;0.30;0.25;;;;;;;11.39;100.00;99405.31;10509341;28;20040;-83
2023/03/23 03:58:31;;;;;;;2.65;1.13;;;;;;;11.46;100.00;99348.56;10523505;28;20040;-84
2023/03/23 04:03:52;;;;;;;0.28;0.10;;;;;;;11.49;100.00;99327.94;10526254;28;20048;-83
2023/03/23 04:09:07;;;;;;;0.00;0.00;;;;;;;11.39;100.00;99325.41;10529859;28;20468;-84
2023/03/23 04:14:08;;;;;;;0.30;0.30;;;;;;;11.46;100.00;99318.50;10509483;28;20492;-81
2023/03/23 04:19:18;;;;;;;0.45;0.30;;;;;;;11.37;100.00;99308.22;10525964;28;20044;-81
2023/03/23 04:24:21;;;;;;;0.85;0.28;;;;;;;11.49;100.00;99307.31;10525235;28;20048;-80
2023/03/23 04:29:26;;;;;;;0.13;0.13;;;;;;;11.80;100.00;99292.56;10503340;28;20040;-81
2023/03/23 04:34:53;;;;;;;0.20;0.15;;;;;;;11.75;100.00;99346.75;10551999;28;20407;-81
2023/03/23 04:40:06;;;;;;;0.68;0.63;;;;;;;11.84;100.00;99365.66;10518068;28;20436;-81
2023/03/23 04:45:12;;;;;;;0.63;0.55;;;;;;;11.75;100.00;99362.25;10533362;28;20043;-80
2023/03/23 04:50:13;;;;;;;0.63;0.32;;;;;;;11.75;100.00;99382.88;10508671;28;20040;-80
2023/03/23 04:55:15;;;;;;;0.10;0.10;;;;;;;11.82;100.00;99388.00;10504059;28;20094;-79
2023/03/23 05:00:20;;;;;;;0.15;0.10;;;;;;;11.75;100.00;99408.69;10536500;28;20040;-79
2023/03/23 05:05:30;;;;;;;3.35;0.28;;;;;;;11.86;100.00;99421.56;10472930;28;20113;-81
2023/03/23 05:10:32;;;;;;;0.03;0.03;;;;;;;12.08;100.00;99441.31;10525886;28;20043;-82
2023/03/23 05:15:39;;;;;;;0.20;0.20;;;;;;;11.99;100.00;99458.53;10533320;28;20513;-81
2023/03/23 05:20:46;;;;;;;0.45;0.45;;;;;;;11.88;100.00;99476.59;10496160;28;20093;-80
2023/03/23 05:26:00;;;;;;;0.90;0.63;;;;;;;11.91;100.00;99483.47;10510907;28;20390;-80
2023/03/23 05:31:03;;;;;;;0.98;0.70;;;;;;;11.89;100.00;99493.81;10494428;28;20044;-79
2023/03/23 05:36:10;;;;;;;3.13;1.73;;;;;;;11.80;100.00;99491.25;10509813;28;20032;-80
2023/03/23 05:41:33;;;;;;;0.68;0.60;;;;;;;11.91;100.00;99506.69;10529404;28;20119;-80
2023/03/23 05:46:35;;;;;;;2.75;1.33;;;;;;;11.93;100.00;99530.78;10509117;28;20451;-80
2023/03/23 05:51:36;;;;;;;0.08;0.08;;;;;;;11.83;100.00;99535.13;10504654;28;20047;-80
2023/03/23 05:56:37;;;;;;;0.30;0.30;;;;;;;11.97;100.00;99553.19;10479565;28;20036;-80
2023/03/23 06:01:44;;;;;;;0.03;0.03;;;;;;;11.88;100.00;99566.06;10559273;28;20052;-80
2023/03/23 06:06:45;;;;;;;0.10;0.10;;;;;;;11.81;100.00;99556.59;10542060;28;20055;-80
2023/03/23 06:11:47;;;;;;;0.73;0.43;;;;;;;11.86;100.00;99576.38;10479495;28;20196;-80
2023/03/23 06:17:03;;;;;;;0.10;0.10;;;;;;;11.95;100.00;99574.66;10504692;28;20040;-80
2023/03/23 06:22:05;;;;;;;0.13;0.13;;;;;;;12.01;100.00;99591.03;10509995;28;20091;-81
2023/03/23 06:27:32;;;;;;;1.17;0.70;;;;;;;11.87;100.00;99582.44;10525496;28;20479;-79
2023/03/23 06:32:33;;;;;;;0.05;0.05;;;;;;;11.92;100.00;99596.19;10556271;28;20031;-80
2023/03/23 06:37:37;;;;;;;0.43;0.43;;;;;;;11.90;100.00;99596.19;10525522;28;20469;-80
2023/03/23 06:42:45;;;;;;;0.03;0.03;;;;;;;12.02;100.00;99603.09;10523526;28;20372;-79
2023/03/23 06:48:04;;;;;;;1.10;0.30;;;;;;;12.10;100.00;99609.97;10521604;28;20290;-80
2023/03/23 06:53:06;;;;;;;0.20;0.13;;;;;;;12.14;100.00;99614.25;10504114;28;20490;-80
2023/03/23 06:58:08;;;;;;;0.08;0.03;;;;;;;12.18;100.00;99623.69;10492787;28;20126;-80
2023/03/23 07:03:09;;;;;;;0.00;0.00;;;;;;;12.18;100.00;99640.06;10501592;28;20270;-79
2023/03/23 07:08:12;;;;;;;0.10;0.08;;;;;;;12.24;100.00;99644.38;10520693;28;20028;-80
2023/03/23 07:13:21;;;;;;;0.38;0.28;;;;;;;12.24;100.00;99628.00;10523524;28;20118;-81
2023/03/23 07:18:27;;;;;;;0.00;0.00;;;;;;;12.25;100.00;99635.75;10515000;28;20081;-80
2023/03/23 07:23:30;;;;;;;0.10;0.10;;;;;;;12.29;100.00;99650.38;10517396;28;20031;-80
2023/03/23 07:28:40;;;;;;;0.20;0.20;;;;;;;12.28;100.00;99666.75;10475208;28;20051;-80
2023/03/23 07:34:13;;;;;;;1.70;0.55;;;;;;;12.30;100.00;99677.06;10545859;28;20503;-80
2023/03/23 07:39:34;;;;;;;0.05;0.05;;;;;;;12.17;100.00;99678.81;10537124;28;20054;-80
2023/03/23 07:44:36;;;;;;;2.28;0.47;;;;;;;12.00;100.00;99655.56;10543651;28;20384;-80
2023/03/23 07:49:44;;;;;;;0.15;0.15;;;;;;;11.86;100.00;99655.53;10509607;28;20091;-80
2023/03/23 07:55:17;;;;;;;0.10;0.00;;;;;;;11.82;100.00;99630.56;10540291;28;20128;-80
2023/03/23 08:00:30;;;;;;;0.35;0.17;;;;;;;11.75;100.00;99646.06;10489659;28;20048;-80
2023/03/23 08:05:32;;;;;;;0.10;0.10;;;;;;;11.21;100.00;99637.34;10514945;28;20506;-82
2023/03/23 08:10:53;;;;;;;0.77;0.00;;;;;;;10.87;100.00;99642.38;10512047;28;20044;-80
2023/03/23 08:16:16;;;;;;;0.25;0.10;;;;;;;10.98;100.00;99645.88;10526708;28;20048;-80
2023/03/23 08:21:42;;;;;;;0.20;0.10;;;;;;;11.26;100.00;99613.31;10517762;28;20040;-82
2023/03/23 08:26:59;;;;;;;4.18;0.63;;;;;;;11.21;100.00;99633.06;10490499;28;20068;-81
2023/03/23 08:32:05;;;;;;;0.05;0.05;;;;;;;11.21;100.00;99637.34;10517667;28;20044;-80
2023/03/23 08:37:24;;;;;;;0.03;0.03;;;;;;;11.26;100.00;99630.50;10501621;28;20045;-80
2023/03/23 08:42:25;;;;;;;0.00;0.00;;;;;;;11.51;100.00;99617.63;10494796;28;20036;-82
2023/03/23 08:47:26;;;;;;;0.35;0.20;;;;;;;11.46;100.00;99601.31;10527552;28;20301;-81
2023/03/23 08:52:46;;;;;;;0.00;0.00;;;;;;;11.51;100.00;99584.13;10540637;28;20258;-81
2023/03/23 08:58:06;;;;;;;0.25;0.22;;;;;;;11.31;100.00;99582.38;10559450;28;20465;-81
2023/03/23 09:03:45;;;;;;;0.13;0.10;;;;;;;11.48;100.00;99578.97;10536371;28;20044;-80
2023/03/23 09:09:00;;;;;;;2.00;0.40;;;;;;;11.68;100.00;99582.41;10521095;28;20051;-81
2023/03/23 09:14:02;;;;;;;0.13;0.13;;;;;;;11.50;100.00;99608.22;10502267;28;20054;-80
2023/03/23 09:19:03;;;;;;;0.03;0.03;;;;;;;11.65;100.00;99638.31;10518735;28;20665;-80
2023/03/23 09:24:06;;;;;;;0.20;0.13;;;;;;;11.38;100.00;99656.31;10505655;28;20036;-80
2023/03/23 09:29:07;;;;;;;0.38;0.00;;;;;;;11.20;100.00;99651.13;10505555;28;20032;-80
2023/03/23 09:34:09;;;;;;;0.00;0.00;;;;;;;11.30;100.00;99647.69;10516801;28;20088;-80
2023/03/23 09:39:11;;;;;;;0.00;0.00;;;;;;;11.37;100.00;99675.22;10526987;28;20040;-81
2023/03/23 09:44:46;;;;;;;0.20;0.08;;;;;;;11.27;100.00;99732.78;10513216;28;20122;-80
2023/03/23 09:49:49;;;;;;;0.00;0.00;;;;;;;11.49;100.00;99756.06;10525804;28;20131;-80
2023/03/23 09:54:53;;;;;;;0.00;0.00;;;;;;;11.37;100.00;99788.69;10511477;28;20048;-82
2023/03/23 10:00:04;;;;;;;0.08;0.03;;;;;;;11.37;100.00;99809.31;10486099;28;20040;-81
2023/03/23 10:05:31;;;;;;;0.00;0.00;;;;;;;12.72;100.00;99827.75;10527996;28;20042;-83
2023/03/23 10:10:44;;;;;;;2.60;0.55;;;;;;;13.69;100.00;99852.59;10508920;28;20054;-80
2023/03/23 10:15:45;;;;;;;0.00;0.00;;;;;;;12.60;100.00;99872.53;10507713;28;20036;-80
2023/03/23 10:20:58;;;;;;;0.00;0.00;;;;;;;13.30;100.00;99883.69;10508861;28;20063;-81
2023/03/23 10:26:13;;;;;;;0.10;0.10;;;;;;;13.90;100.00;99916.34;10506834;28;20246;-81
2023/03/23 10:31:20;;;;;;;0.32;0.32;;;;;;;14.08;100.00;99933.53;10525839;28;20122;-81
2023/03/23 10:36:38;;;;;;;0.00;0.00;;;;;;;14.28;100.00;99954.19;10495096;28;20035;-82
2023/03/23 10:41:38;;;;;;;0.00;0.00;;;;;;;13.75;100.00;99975.94;10503828;28;20044;-81
2023/03/23 10:46:48;;;;;;;0.52;0.52;;;;;;;14.37;100.00;99988.69;10513470;28;20032;-80
2023/03/23 10:52:02;;;;;;;1.30;1.20;;;;;;;14.36;100.00;100003.41;10514741;28;20059;-82
2023/03/23 10:57:20;;;;;;;0.00;0.00;;;;;;;13.93;100.00;100009.56;10492670;28;20476;-80
2023/03/23 11:02:24;;;;;;;0.00;0.00;;;;;;;13.78;100.00;100017.38;10497315;28;20111;-81
2023/03/23 11:07:28;;;;;;;0.52;0.43;;;;;;;14.55;100.00;100049.97;10490925;28;20043;-79
2023/03/23 11:12:33;;;;;;;2.08;0.10;;;;;;;13.55;100.00;100033.78;10491165;28;20082;-80
2023/03/23 11:17:34;;;;;;;0.10;0.10;;;;;;;14.50;100.00;100030.97;10513684;28;20567;-80
2023/03/23 11:22:36;;;;;;;0.10;0.10;;;;;;;14.20;100.00;100054.38;10496098;28;20042;-82
2023/03/23 11:27:38;;;;;;;0.00;0.00;;;;;;;14.22;100.00;100062.19;10475141;28;20539;-80
2023/03/23 11:32:44;;;;;;;0.63;0.15;;;;;;;15.46;100.00;100052.03;10500961;28;20410;-82
2023/03/23 11:37:57;;;;;;;0.00;0.00;;;;;;;14.27;100.00;100102.72;10493627;28;20029;-81
2023/03/23 11:43:00;;;;;;;2.38;1.10;;;;;;;14.03;100.00;100093.28;10503592;28;20123;-79
2023/03/23 11:48:18;;;;;;;0.00;0.00;;;;;;;13.81;100.00;100126.13;10525538;28;20032;-79
2023/03/23 11:53:40;;;;;;;1.17;0.40;;;;;;;13.38;100.00;100139.88;10502940;28;20618;-79
2023/03/23 11:58:41;;;;;;;0.00;0.00;;;;;;;13.69;100.00;100108.84;10530088;28;20036;-80
2023/03/23 12:03:48;;;;;;;0.15;0.15;;;;;;;13.64;100.00;100095.03;10521546;28;20402;-80
2023/03/23 12:08:51;;;;;;;0.00;0.00;;;;;;;15.31;100.00;100107.53;10498494;28;20043;-80
2023/03/23 12:14:03;;;;;;;0.80;0.35;;;;;;;14.56;100.00;100138.06;10540918;28;20039;-81
2023/03/23 12:19:30;;;;;;;1.10;0.20;;;;;;;14.56;100.00;100145.84;10522108;28;20055;-79
2023/03/23 12:24:48;;;;;;;1.85;0.68;;;;;;;14.88;100.00;100106.03;10503032;28;20048;-80
2023/03/23 12:30:27;;;;;;;0.10;0.05;;;;;;;14.03;100.00;100067.38;10537278;28;20419;-80
2023/03/23 12:35:46;;;;;;;0.25;0.05;;;;;;;15.52;100.00;100052.00;10539937;28;20040;-81
2023/03/23 12:41:30;;;;;;;0.83;0.40;;;;;;;14.70;100.00;100088.81;10541137;28;20047;-80
2023/03/23 12:46:40;;;;;;;0.70;0.10;;;;;;;15.69;100.00;100092.53;10473725;28;20040;-80
2023/03/23 12:51:45;;;;;;;;;;;;;;;16.01;100.00;100073.25;10501129;28;20054;-81
2023/03/23 12:57:05;;;;;;;0.00;0.00;;;;;;;15.67;100.00;100073.53;10499982;28;19920;-80
2023/03/23 13:02:23;;;;;;;0.05;0.00;;;;;;;15.34;100.00;100065.13;10518586;28;20054;-81
2023/03/23 13:07:30;;;;;;;0.10;0.10;;;;;;;15.55;100.00;100077.94;10525719;28;20040;-79
2023/03/23 13:12:34;;;;;;;1.88;0.65;;;;;;;14.77;100.00;100089.66;10529045;28;20123;-80
2023/03/23 13:17:44;;;;;;;0.00;0.00;;;;;;;14.48;100.00;100038.78;10513552;28;20172;-79
2023/03/23 13:23:20;;;;;;;1.42;0.32;;;;;;;14.65;100.00;99994.63;10514110;28;20044;-79
2023/03/23 13:28:25;;;;;;;1.35;0.32;;;;;;;15.16;100.00;100011.63;10451306;28;20104;-79
2023/03/23 13:33:30;;;;;;;0.00;0.00;;;;;;;14.74;100.00;100035.22;10506364;28;20056;-79
2023/03/23 13:38:31;;;;;;;0.05;0.05;;;;;;;14.87;100.00;100042.06;10519296;28;20083;-81
2023/03/23 13:43:34;;;;;;;0.10;0.10;;;;;;;14.43;100.00;100035.31;10496694;28;20068;-80
2023/03/23 13:48:51;;;;;;;0.10;0.10;;;;;;;14.42;100.00;100012.84;10505344;28;20462;-81
2023/03/23 13:53:52;;;;;;;0.30;0.30;;;;;;;14.14;100.00;100063.91;10525167;28;20040;-81
2023/03/23 13:59:06;;;;;;;0.68;0.63;;;;;;;13.57;100.00;100088.13;10515259;28;20127;-79
2023/03/23 14:04:19;;;;;;;0.03;0.03;;;;;;;12.83;100.00;100042.28;10513753;28;20475;-80
2023/03/23 14:09:37;;;;;;;0.10;0.10;;;;;;;12.17;100.00;99939.59;10519728;28;20036;-80
2023/03/23 14:14:45;;;;;;;0.05;0.05;;;;;;;12.62;100.00;99870.78;10494022;28;20521;-79
2023/03/23 14:19:52;;;;;;;0.00;0.00;;;;;;;12.86;100.00;99856.16;10493196;28;20032;-80
2023/03/23 14:25:20;;;;;;;0.20;0.08;;;;;;;13.21;100.00;99847.53;10520761;28;20035;-80
2023/03/23 14:30:24;;;;;;;0.22;0.10;;;;;;;13.66;100.00;99859.50;10535843;28;20511;-81
2023/03/23 14:35:30;;;;;;;2.67;0.15;;;;;;;13.43;100.00;99889.75;10524784;28;20040;-80
2023/03/23 14:40:31;;;;;;;0.10;0.10;;;;;;;13.00;100.00;99885.44;10526938;28;20105;-81
2023/03/23 14:45:32;;;;;;;0.28;0.25;;;;;;;13.22;100.00;99872.50;10507558;28;20553;-81
2023/03/23 14:50:37;;;;;;;0.00;0.00;;;;;;;13.23;100.00;99883.72;10491442;28;20040;-86
2023/03/23 14:55:42;;;;;;;2.47;1.67;;;;;;;12.58;100.00;99876.84;10500003;28;20193;-86
2023/03/23 15:01:09;;;;;;;0.93;0.68;;;;;;;12.17;100.00;99797.59;10530264;28;20051;-82
2023/03/23 15:06:16;;;;;;;0.00;0.00;;;;;;;12.81;100.00;99734.69;10482367;28;20060;-83
2023/03/23 15:11:17;;;;;;;0.05;0.05;;;;;;;13.63;100.00;99731.84;10530427;28;20039;-86
2023/03/23 15:16:20;;;;;;;0.05;0.05;;;;;;;14.01;100.00;99773.88;10521349;28;20036;-86
2023/03/23 15:21:31;;;;;;;0.00;0.00;;;;;;;14.00;100.00;99828.28;10505511;28;20059;-83
2023/03/23 15:26:41;;;;;;;0.15;0.15;;;;;;;13.75;100.00;99851.69;10514427;28;20036;-85
2023/03/23 15:31:47;;;;;;;0.00;0.00;;;;;;;13.75;100.00;99895.69;10501963;28;20040;-84
2023/03/23 15:36:55;;;;;;;0.00;0.00;;;;;;;13.72;100.00;99898.31;10512706;28;20036;-83
2023/03/23 15:41:57;;;;;;;0.00;0.00;;;;;;;13.74;100.00;99900.03;10519318;28;20040;-86
2023/03/23 15:47:16;;;;;;;12.80;0.63;;;;;;;13.92;100.00;99878.38;10505216;28;20032;-85
2023/03/23 15:52:17;;;;;;;0.00;0.00;;;;;;;13.62;100.00;99843.97;10482492;28;20387;-85
2023/03/23 15:57:17;;;;;;;0.00;0.00;;;;;;;13.14;100.00;99832.88;10506887;28;20036;-84
2023/03/23 16:02:22;;;;;;;0.30;0.30;;;;;;;13.61;100.00;99811.19;10505553;28;20047;-86
2023/03/23 16:07:24;;;;;;;0.08;0.08;;;;;;;13.77;100.00;99805.97;10544660;28;20115;-85
2023/03/23 16:12:26;;;;;;;0.08;0.08;;;;;;;13.68;100.00;99826.69;10518987;28;20047;-84
2023/03/23 16:17:27;;;;;;;1.85;0.30;;;;;;;13.56;100.00;99841.41;10472974;28;20040;-85
2023/03/23 16:22:29;;;;;;;0.75;0.28;;;;;;;13.15;100.00;99801.84;10510763;28;20075;-84
2023/03/23 16:27:31;;;;;;;0.00;0.00;;;;;;;13.16;100.00;99763.91;10515020;28;20488;-84
2023/03/23 16:32:32;;;;;;;0.30;0.10;;;;;;;12.86;100.00;99760.53;10521199;28;21266;-85
2023/03/23 16:37:33;;;;;;;0.20;0.20;;;;;;;12.52;100.00;99761.41;10515168;28;20494;-85
2023/03/23 16:42:35;;;;;;;3.58;1.13;;;;;;;12.42;100.00;99751.09;10551177;28;20048;-82
2023/03/23 16:47:36;;;;;;;1.02;0.57;;;;;;;12.48;100.00;99740.75;10531643;28;20535;-86
2023/03/23 16:52:40;;;;;;;0.00;0.00;;;;;;;12.45;100.00;99740.78;10557847;28;20036;-86
2023/03/23 16:57:47;;;;;;;2.58;1.25;;;;;;;12.43;100.00;99733.03;10532463;28;20047;-85
2023/03/23 17:02:50;;;;;;;0.85;0.30;;;;;;;12.31;100.00;99745.94;10549823;28;20536;-84
2023/03/23 17:07:56;;;;;;;3.25;0.63;;;;;;;12.12;100.00;99733.03;10538673;28;20039;-86
2023/03/23 17:12:58;;;;;;;0.30;0.22;;;;;;;12.12;100.00;99740.78;10518966;28;20050;-87
2023/03/23 17:18:00;;;;;;;0.10;0.10;;;;;;;11.94;100.00;99723.50;10529761;28;20048;-86
2023/03/23 17:23:03;;;;;;;0.65;0.40;;;;;;;11.77;100.00;99701.97;10539448;28;20040;-85
2023/03/23 17:28:05;;;;;;;3.38;0.55;;;;;;;11.70;100.00;99699.38;10556035;27;20474;-85
2023/03/23 17:33:08;;;;;;;0.68;0.40;;;;;;;11.62;100.00;99679.56;10561679;28;20055;-85
2023/03/23 17:38:10;;;;;;;0.00;0.00;;;;;;;11.63;100.00;99664.13;10525347;28;20068;-85
2023/03/23 17:43:12;;;;;;;0.15;0.15;;;;;;;11.54;100.00;99657.19;10534101;28;20402;-85
2023/03/23 17:48:13;;;;;;;0.20;0.20;;;;;;;11.49;100.00;99652.91;10513685;28;20043;-85
2023/03/23 17:53:17;;;;;;;0.00;0.00;;;;;;;11.67;100.00;99636.59;10543850;28;20578;-85
2023/03/23 17:58:19;;;;;;;0.20;0.20;;;;;;;11.83;100.00;99617.69;10514406;28;20125;-85
2023/03/23 18:03:21;;;;;;;0.93;0.40;;;;;;;11.94;100.00;99615.09;10514330;28;20077;-85
2023/03/23 18:08:24;;;;;;;10.65;0.50;;;;;;;12.02;100.00;99623.75;10531652;28;20044;-85
2023/03/23 18:13:28;;;;;;;1.70;0.73;;;;;;;12.01;100.00;99626.31;10531130;28;20097;-84
2023/03/23 18:18:32;;;;;;;0.10;0.10;;;;;;;12.04;100.00;99634.91;10546245;28;20061;-85
2023/03/23 18:23:36;;;;;;;0.03;0.00;;;;;;;12.15;100.00;99628.88;10507920;28;20047;-85
2023/03/23 18:28:51;;;;;;;1.17;0.65;;;;;;;12.17;100.00;99628.03;10562829;27;20046;-85
2023/03/23 18:33:53;;;;;;;0.98;0.30;;;;;;;12.17;100.00;99635.75;10518781;28;20055;-85
2023/03/23 18:38:57;;;;;;;0.17;0.17;;;;;;;12.15;100.00;99628.88;10543654;28;20051;-85
2023/03/23 18:43:59;;;;;;;0.25;0.08;;;;;;;12.10;100.00;99617.72;10544038;28;20444;-85
2023/03/23 18:49:00;;;;;;;0.10;0.10;;;;;;;12.01;100.00;99610.81;10525051;28;20048;-85
2023/03/23 18:54:02;;;;;;;0.30;0.30;;;;;;;12.12;100.00;99608.22;10537606;28;20051;-85
2023/03/23 18:59:05;;;;;;;0.22;0.22;;;;;;;12.20;100.00;99616.81;10517821;28;20070;-85
2023/03/23 19:04:06;;;;;;;4.07;0.98;;;;;;;12.22;100.00;99599.63;10570118;27;20039;-80
2023/03/23 19:09:08;;;;;;;2.08;0.32;;;;;;;12.31;100.00;99621.97;10561842;27;20036;-80
2023/03/23 19:14:10;;;;;;;0.80;0.50;;;;;;;12.32;100.00;99624.53;10521347;28;20044;-80
2023/03/23 19:19:12;;;;;;;0.80;0.52;;;;;;;12.34;100.00;99633.16;10552159;28;20042;-81
2023/03/23 19:24:14;;;;;;;0.00;0.00;;;;;;;12.34;100.00;99630.56;10526271;28;20486;-80
2023/03/23 19:29:18;;;;;;;0.20;0.20;;;;;;;12.44;100.00;99646.06;10557020;28;20046;-80
2023/03/23 19:34:29;;;;;;;0.17;0.17;;;;;;;12.44;100.00;99630.56;10542008;28;20047;-80
2023/03/23 19:39:32;;;;;;;0.90;0.55;;;;;;;12.44;100.00;99646.91;10541013;28;20050;-80
2023/03/23 19:44:33;;;;;;;3.33;0.63;;;;;;;12.49;100.00;99641.72;10542930;28;20044;-80
2023/03/23 19:49:35;;;;;;;0.52;0.30;;;;;;;12.51;100.00;99642.59;10520182;28;20119;-79
2023/03/23 19:54:37;;;;;;;0.00;0.00;;;;;;;12.67;100.00;99653.75;10557451;28;20043;-79
2023/03/23 19:59:40;;;;;;;0.05;0.05;;;;;;;12.57;100.00;99665.81;10547507;28;20048;-80
2023/03/23 20:04:42;;;;;;;0.73;0.13;;;;;;;12.58;100.00;99670.13;10539289;28;20051;-79
2023/03/23 20:09:46;;;;;;;0.17;0.10;;;;;;;12.82;100.00;99673.53;10534596;28;20539;-79
2023/03/23 20:14:49;;;;;;;2.58;1.27;;;;;;;12.64;100.00;99690.78;10572377;28;20052;-81
2023/03/23 20:19:51;;;;;;;1.25;1.15;;;;;;;12.81;100.00;99687.31;10527912;28;20047;-80
2023/03/23 20:24:52;;;;;;;0.25;0.17;;;;;;;12.96;100.00;99697.59;10529363;28;20047;-81
2023/03/23 20:29:54;;;;;;;0.08;0.08;;;;;;;12.92;100.00;99702.78;10537218;28;20036;-80
2023/03/23 20:34:58;;;;;;;0.00;0.00;;;;;;;12.82;100.00;99707.13;10541121;28;20082;-80
2023/03/23 20:40:01;;;;;;;0.00;0.00;;;;;;;12.95;100.00;99706.22;10538225;28;20040;-79
2023/03/23 20:45:04;;;;;;;0.00;0.00;;;;;;;12.72;100.00;99695.09;10532154;28;20100;-81
2023/03/23 20:50:07;;;;;;;1.48;1.38;;;;;;;12.79;100.00;99709.72;10541951;28;20056;-80
2023/03/23 20:55:09;;;;;;;3.00;1.55;;;;;;;12.68;100.00;99702.84;10512300;28;20101;-80
2023/03/23 21:00:15;;;;;;;0.20;0.10;;;;;;;12.54;100.00;99689.94;10529705;28;20044;-80
2023/03/23 21:05:16;;;;;;;0.00;0.00;;;;;;;12.28;100.00;99656.41;10528707;28;20039;-80
2023/03/23 21:10:21;;;;;;;1.42;0.22;;;;;;;12.34;100.00;99617.66;10528385;28;20051;-81
2023/03/23 21:15:23;;;;;;;0.00;0.00;;;;;;;12.12;100.00;99596.19;10509211;28;20058;-86
2023/03/23 21:20:25;;;;;;;0.08;0.05;;;;;;;11.88;100.00;99545.41;10494271;28;20040;-84
2023/03/23 21:25:27;;;;;;;0.00;0.00;;;;;;;11.83;100.00;99503.28;10516437;28;20098;-82
2023/03/23 21:30:36;;;;;;;0.10;0.10;;;;;;;11.62;100.00;99476.66;10522669;28;20048;-82
2023/03/23 21:35:40;;;;;;;0.38;0.30;;;;;;;11.59;100.00;99445.69;10538141;28;20043;-85
2023/03/23 21:40:42;;;;;;;0.22;0.20;;;;;;;11.51;100.00;99411.31;10562512;27;20484;-85
2023/03/23 21:45:44;;;;;;;0.98;0.43;;;;;;;11.54;100.00;99388.94;10536217;28;20039;-83
2023/03/23 21:50:46;;;;;;;0.30;0.10;;;;;;;11.40;100.00;99368.38;10534707;28;20071;-83
2023/03/23 21:55:53;;;;;;;0.10;0.10;;;;;;;11.47;100.00;99346.00;10537979;28;20048;-83
2023/03/23 22:00:55;;;;;;;0.10;0.10;;;;;;;11.48;100.00;99323.66;10544085;28;20071;-82
2023/03/23 22:06:03;;;;;;;0.00;0.00;;;;;;;11.39;100.00;99307.34;10524076;28;20048;-82
2023/03/23 22:11:09;;;;;;;0.52;0.22;;;;;;;11.52;100.00;99294.41;10545007;28;20050;-83
2023/03/23 22:16:13;;;;;;;0.00;0.00;;;;;;;11.29;100.00;99274.69;10542351;28;20036;-83
2023/03/23 22:21:16;;;;;;;0.00;0.00;;;;;;;11.44;100.00;99273.81;10494264;28;20132;-82
2023/03/23 22:26:18;;;;;;;0.30;0.25;;;;;;;11.51;100.00;99248.84;10487441;28;20040;-83
2023/03/23 22:31:23;;;;;;;0.20;0.20;;;;;;;11.53;100.00;99254.84;10499388;28;20059;-83
2023/03/23 22:36:26;;;;;;;0.00;0.00;;;;;;;11.52;100.00;99248.84;10522259;28;20040;-82
2023/03/23 22:41:31;;;;;;;0.00;0.00;;;;;;;11.46;100.00;99236.00;10526051;28;20043;-83
2023/03/23 22:46:33;;;;;;;0.10;0.10;;;;;;;11.36;100.00;99219.69;10526296;28;20044;-83
2023/03/23 22:51:35;;;;;;;0.00;0.00;;;;;;;11.31;100.00;99216.25;10517029;28;20043;-81
2023/03/23 22:56:39;;;;;;;0.00;0.00;;;;;;;11.28;100.00;99190.53;10526442;28;20044;-84
2023/03/23 23:01:41;;;;;;;0.17;0.10;;;;;;;11.23;100.00;99176.78;10507234;28;20063;-80
2023/03/23 23:06:43;;;;;;;0.50;0.25;;;;;;;11.26;100.00;99166.47;10510325;28;20045;-83
2023/03/23 23:11:45;;;;;;;1.55;0.47;;;;;;;11.17;100.00;99151.03;10528531;28;20044;-82
2023/03/23 23:16:47;;;;;;;0.00;0.00;;;;;;;11.20;100.00;99128.66;10514010;28;20094;-81
2023/03/23 23:21:49;;;;;;;0.10;0.10;;;;;;;11.22;100.00;99113.19;10519479;28;20044;-82
2023/03/23 23:26:52;;;;;;;0.32;0.32;;;;;;;11.66;100.00;99073.34;10517446;28;20617;-81
2023/03/23 23:31:53;;;;;;;0.05;0.05;;;;;;;11.54;100.00;99073.47;10546399;28;20047;-81